SDM5752 UHWW-UNKL
Flight info
| Callsign | SDM5752 |
|---|---|
| Flight time | N/A |
| Altitude | 35000 |
| Route | N0460F350 DOLMA B356 TD B355 HAB/NK0817F360 L168 IVADA A946 TORMA N992 GU G363 BRT B151 KOTIB W174 TISBU A311 LALOM |
| Aircraft | B738/M-VGDW/C |
Departure
| Time | 2026-04-24 12:52 |
|---|---|
| Airport | Vladivostok International Airport (UHWW) |
Arrival
| Time | N/A |
|---|---|
| Airport | Krasnoyarsk International Airport (UNKL) |
| Time | Latitude | Longitude | Altitude | Speed | Heading |
|---|---|---|---|---|---|
| 2026-04-24 12:42 | 43.39691 | 132.16418 | 68 ft | 0 kts | 152° |
| 2026-04-24 12:45 | 43.39696 | 132.16415 | 59 ft | 2 kts | 152° |
| 2026-04-24 12:45 | 43.39711 | 132.16404 | 59 ft | 2 kts | 152° |
| 2026-04-24 12:45 | 43.39725 | 132.16394 | 59 ft | 2 kts | 152° |
| 2026-04-24 12:46 | 43.39739 | 132.16383 | 61 ft | 2 kts | 152° |
| 2026-04-24 12:46 | 43.39753 | 132.16373 | 61 ft | 2 kts | 151° |
| 2026-04-24 12:46 | 43.39766 | 132.16360 | 64 ft | 2 kts | 103° |
| 2026-04-24 12:46 | 43.39765 | 132.16338 | 60 ft | 2 kts | 64° |
| 2026-04-24 12:47 | 43.39764 | 132.16336 | 60 ft | 0 kts | 60° |
| 2026-04-24 12:48 | 43.39774 | 132.16359 | 59 ft | 7 kts | 60° |
| 2026-04-24 12:49 | 43.39810 | 132.16448 | 59 ft | 17 kts | 61° |
| 2026-04-24 12:49 | 43.39872 | 132.16602 | 63 ft | 18 kts | 61° |
| 2026-04-24 12:49 | 43.39933 | 132.16753 | 66 ft | 18 kts | 61° |
| 2026-04-24 12:49 | 43.39992 | 132.16899 | 61 ft | 17 kts | 60° |
| 2026-04-24 12:50 | 43.40047 | 132.17037 | 65 ft | 16 kts | 61° |
| 2026-04-24 12:50 | 43.40141 | 132.17065 | 68 ft | 16 kts | 332° |
| 2026-04-24 12:50 | 43.40237 | 132.16995 | 63 ft | 15 kts | 332° |
| 2026-04-24 12:50 | 43.40329 | 132.16930 | 68 ft | 15 kts | 333° |
| 2026-04-24 12:51 | 43.40416 | 132.16865 | 60 ft | 14 kts | 322° |
| 2026-04-24 12:51 | 43.40412 | 132.16745 | 61 ft | 16 kts | 240° |
| 2026-04-24 12:51 | 43.40288 | 132.16440 | 66 ft | 68 kts | 241° |
| 2026-04-24 12:51 | 43.39949 | 132.15601 | 66 ft | 130 kts | 241° |
| 2026-04-24 12:52 | 43.39426 | 132.14310 | 182 ft | 170 kts | 239° |
| 2026-04-24 12:52 | 43.38856 | 132.12878 | 938 ft | 164 kts | 238° |
| 2026-04-24 12:52 | 43.38295 | 132.11456 | 1607 ft | 177 kts | 233° |
| 2026-04-24 12:52 | 43.37664 | 132.09923 | 2000 ft | 195 kts | 232° |
| 2026-04-24 12:53 | 43.36969 | 132.08230 | 2190 ft | 211 kts | 233° |
| 2026-04-24 12:53 | 43.36238 | 132.06437 | 2591 ft | 218 kts | 233° |
| 2026-04-24 12:53 | 43.35514 | 132.04649 | 3268 ft | 215 kts | 234° |
| 2026-04-24 12:53 | 43.34767 | 132.02837 | 3900 ft | 217 kts | 231° |
| 2026-04-24 12:54 | 43.33616 | 132.01461 | 4089 ft | 229 kts | 200° |
| 2026-04-24 12:54 | 43.32030 | 132.01172 | 4551 ft | 236 kts | 173° |
| 2026-04-24 12:54 | 43.30501 | 132.02030 | 5124 ft | 245 kts | 145° |
| 2026-04-24 12:54 | 43.29427 | 132.03917 | 5588 ft | 264 kts | 116° |
| 2026-04-24 12:55 | 43.29172 | 132.06477 | 6052 ft | 282 kts | 86° |
| 2026-04-24 12:55 | 43.29569 | 132.09145 | 6605 ft | 289 kts | 78° |
| 2026-04-24 12:55 | 43.30077 | 132.11850 | 7118 ft | 295 kts | 77° |
| 2026-04-24 12:55 | 43.30593 | 132.14584 | 7742 ft | 296 kts | 77° |
| 2026-04-24 12:56 | 43.31095 | 132.17323 | 8437 ft | 297 kts | 77° |
| 2026-04-24 12:56 | 43.31585 | 132.20089 | 9065 ft | 300 kts | 76° |
| 2026-04-24 12:56 | 43.32070 | 132.22894 | 9705 ft | 303 kts | 76° |
| 2026-04-24 12:56 | 43.32553 | 132.25725 | 10332 ft | 306 kts | 76° |
| 2026-04-24 12:57 | 43.33045 | 132.28641 | 10585 ft | 324 kts | 76° |
| 2026-04-24 12:57 | 43.33566 | 132.31742 | 10756 ft | 343 kts | 76° |
| 2026-04-24 12:57 | 43.34109 | 132.34986 | 10906 ft | 362 kts | 76° |
| 2026-04-24 12:57 | 43.34691 | 132.38479 | 11052 ft | 380 kts | 76° |
| 2026-04-24 12:58 | 43.35360 | 132.42057 | 11215 ft | 393 kts | 68° |
| 2026-04-24 12:58 | 43.36771 | 132.45208 | 11641 ft | 393 kts | 44° |
| 2026-04-24 12:58 | 43.38908 | 132.47487 | 12305 ft | 388 kts | 26° |
| 2026-04-24 12:58 | 43.41420 | 132.48773 | 12963 ft | 384 kts | 12° |
| 2026-04-24 12:59 | 43.44007 | 132.49715 | 13601 ft | 386 kts | 12° |
| 2026-04-24 12:59 | 43.46630 | 132.50642 | 14140 ft | 391 kts | 12° |
| 2026-04-24 12:59 | 43.49272 | 132.51581 | 14665 ft | 394 kts | 12° |
| 2026-04-24 12:59 | 43.51938 | 132.52544 | 15248 ft | 396 kts | 12° |
| 2026-04-24 13:00 | 43.54609 | 132.53524 | 15837 ft | 399 kts | 12° |
| 2026-04-24 13:00 | 43.57293 | 132.54519 | 16398 ft | 401 kts | 12° |
| 2026-04-24 13:00 | 43.60004 | 132.55529 | 16952 ft | 404 kts | 12° |
| 2026-04-24 13:00 | 43.62724 | 132.56547 | 17520 ft | 407 kts | 12° |
| 2026-04-24 13:01 | 43.65470 | 132.57576 | 18064 ft | 409 kts | 12° |
| 2026-04-24 13:01 | 43.68227 | 132.58610 | 18563 ft | 413 kts | 12° |
| 2026-04-24 13:01 | 43.71003 | 132.59652 | 19008 ft | 415 kts | 11° |
| 2026-04-24 13:01 | 43.73808 | 132.60705 | 19456 ft | 418 kts | 11° |
| 2026-04-24 13:02 | 43.76622 | 132.61762 | 19897 ft | 421 kts | 11° |
| 2026-04-24 13:02 | 43.79449 | 132.62863 | 20310 ft | 426 kts | 15° |
| 2026-04-24 13:02 | 43.82105 | 132.64807 | 20653 ft | 441 kts | 35° |
| 2026-04-24 13:02 | 43.84403 | 132.67645 | 21137 ft | 444 kts | 38° |
| 2026-04-24 13:03 | 43.86689 | 132.70535 | 21534 ft | 447 kts | 38° |
| 2026-04-24 13:03 | 43.89008 | 132.73450 | 21892 ft | 451 kts | 38° |
| 2026-04-24 13:03 | 43.91345 | 132.76367 | 22265 ft | 454 kts | 38° |
| 2026-04-24 13:03 | 43.93709 | 132.79303 | 22656 ft | 457 kts | 37° |
| 2026-04-24 13:04 | 43.96083 | 132.82241 | 23037 ft | 459 kts | 37° |
| 2026-04-24 13:04 | 43.98472 | 132.85195 | 23400 ft | 462 kts | 37° |
| 2026-04-24 13:04 | 44.00881 | 132.88177 | 23771 ft | 464 kts | 37° |
| 2026-04-24 13:04 | 44.03292 | 132.91164 | 24071 ft | 466 kts | 37° |
| 2026-04-24 13:05 | 44.05723 | 132.94179 | 24376 ft | 469 kts | 37° |
| 2026-04-24 13:05 | 44.07328 | 132.96172 | 24552 ft | 470 kts | 37° |
| 2026-04-24 13:05 | 44.09776 | 132.99217 | 24859 ft | 472 kts | 37° |
| 2026-04-24 13:05 | 44.12226 | 133.02268 | 25142 ft | 474 kts | 37° |
| 2026-04-24 13:06 | 44.14685 | 133.05334 | 25446 ft | 476 kts | 37° |
| 2026-04-24 13:06 | 44.17156 | 133.08417 | 25789 ft | 476 kts | 37° |
| 2026-04-24 13:06 | 44.19624 | 133.11499 | 26065 ft | 478 kts | 37° |
| 2026-04-24 13:06 | 44.22178 | 133.14479 | 26298 ft | 478 kts | 33° |
| 2026-04-24 13:07 | 44.24830 | 133.17269 | 26549 ft | 479 kts | 31° |
| 2026-04-24 13:07 | 44.27530 | 133.19984 | 26822 ft | 479 kts | 30° |
| 2026-04-24 13:07 | 44.30248 | 133.22690 | 27207 ft | 478 kts | 30° |
| 2026-04-24 13:07 | 44.32939 | 133.25390 | 27662 ft | 475 kts | 31° |
| 2026-04-24 13:08 | 44.35612 | 133.28104 | 28107 ft | 473 kts | 31° |
| 2026-04-24 13:08 | 44.38263 | 133.30822 | 28447 ft | 473 kts | 31° |
| 2026-04-24 13:08 | 44.40913 | 133.33556 | 28745 ft | 474 kts | 31° |
| 2026-04-24 13:09 | 44.46210 | 133.39055 | 29495 ft | 473 kts | 31° |
| 2026-04-24 13:09 | 44.48848 | 133.41801 | 29779 ft | 474 kts | 31° |
| 2026-04-24 13:09 | 44.51508 | 133.44569 | 30006 ft | 476 kts | 31° |
| 2026-04-24 13:09 | 44.54161 | 133.47334 | 30342 ft | 475 kts | 31° |
| 2026-04-24 13:10 | 44.56803 | 133.50093 | 30702 ft | 473 kts | 31° |
| 2026-04-24 13:10 | 44.59444 | 133.52852 | 31026 ft | 472 kts | 31° |
| 2026-04-24 13:10 | 44.62072 | 133.55601 | 31280 ft | 472 kts | 30° |
| 2026-04-24 13:10 | 44.64711 | 133.58362 | 31527 ft | 472 kts | 30° |
| 2026-04-24 13:11 | 44.67338 | 133.61114 | 31856 ft | 471 kts | 31° |
| 2026-04-24 13:11 | 44.69961 | 133.63867 | 32203 ft | 469 kts | 30° |
| 2026-04-24 13:11 | 44.72566 | 133.66604 | 32504 ft | 468 kts | 30° |
| 2026-04-24 13:11 | 44.75170 | 133.69341 | 32739 ft | 468 kts | 30° |
| 2026-04-24 13:12 | 44.77783 | 133.72091 | 32983 ft | 468 kts | 30° |
| 2026-04-24 13:12 | 44.80383 | 133.74832 | 33283 ft | 467 kts | 30° |
| 2026-04-24 13:12 | 44.82976 | 133.77569 | 33559 ft | 466 kts | 30° |
| 2026-04-24 13:12 | 44.85573 | 133.80313 | 33808 ft | 466 kts | 30° |
| 2026-04-24 13:13 | 44.88161 | 133.83049 | 34055 ft | 465 kts | 30° |
| 2026-04-24 13:13 | 44.90755 | 133.85795 | 34279 ft | 465 kts | 30° |
| 2026-04-24 13:13 | 44.93346 | 133.88514 | 34459 ft | 465 kts | 29° |
| 2026-04-24 13:13 | 44.96010 | 133.91198 | 34590 ft | 465 kts | 28° |
| 2026-04-24 13:14 | 44.98634 | 133.93789 | 34744 ft | 466 kts | 28° |
| 2026-04-24 13:14 | 45.01325 | 133.96433 | 34949 ft | 465 kts | 28° |
| 2026-04-24 13:14 | 45.03973 | 133.99042 | 35155 ft | 465 kts | 28° |
| 2026-04-24 13:14 | 45.06603 | 134.01643 | 35135 ft | 468 kts | 28° |
| 2026-04-24 13:15 | 45.11982 | 134.07003 | 35145 ft | 470 kts | 29° |
| 2026-04-24 13:15 | 45.17300 | 134.12337 | 35150 ft | 468 kts | 29° |
| 2026-04-24 13:16 | 45.22608 | 134.17675 | 35159 ft | 467 kts | 29° |
| 2026-04-24 13:16 | 45.27866 | 134.22971 | 35153 ft | 466 kts | 29° |
| 2026-04-24 13:17 | 45.33169 | 134.28325 | 35146 ft | 465 kts | 29° |
| 2026-04-24 13:17 | 45.38395 | 134.33612 | 35159 ft | 463 kts | 30° |
| 2026-04-24 13:18 | 45.43640 | 134.38930 | 35143 ft | 462 kts | 30° |
| 2026-04-24 13:18 | 45.48867 | 134.44244 | 35141 ft | 461 kts | 30° |
| 2026-04-24 13:19 | 45.54114 | 134.49590 | 35150 ft | 460 kts | 30° |
| 2026-04-24 13:19 | 45.59271 | 134.54856 | 35142 ft | 459 kts | 30° |
| 2026-04-24 13:20 | 45.64459 | 134.60167 | 35148 ft | 458 kts | 30° |
| 2026-04-24 13:20 | 45.69642 | 134.65485 | 35142 ft | 458 kts | 30° |
| 2026-04-24 13:21 | 45.74858 | 134.70848 | 35155 ft | 459 kts | 31° |
| 2026-04-24 13:21 | 45.79998 | 134.76147 | 35136 ft | 459 kts | 31° |
| 2026-04-24 13:22 | 45.85183 | 134.81504 | 35138 ft | 459 kts | 31° |
| 2026-04-24 13:22 | 45.90689 | 134.85897 | 35144 ft | 448 kts | 14° |
| 2026-04-24 13:23 | 45.96705 | 134.87648 | 35147 ft | 439 kts | 0° |
| 2026-04-24 13:23 | 46.02823 | 134.88379 | 35135 ft | 439 kts | 0° |
| 2026-04-24 13:24 | 46.08921 | 134.89114 | 35134 ft | 440 kts | 0° |
| 2026-04-24 13:24 | 46.15028 | 134.89901 | 35132 ft | 441 kts | 0° |
| 2026-04-24 13:25 | 46.21141 | 134.90712 | 35133 ft | 441 kts | 1° |
| 2026-04-24 13:25 | 46.27254 | 134.91530 | 35136 ft | 442 kts | 1° |
| 2026-04-24 13:26 | 46.33385 | 134.92350 | 35126 ft | 442 kts | 1° |
| 2026-04-24 13:26 | 46.39520 | 134.93172 | 35138 ft | 443 kts | 1° |
| 2026-04-24 13:27 | 46.45650 | 134.93995 | 35136 ft | 443 kts | 1° |
| 2026-04-24 13:27 | 46.51799 | 134.94822 | 35131 ft | 444 kts | 1° |
| 2026-04-24 13:28 | 46.57952 | 134.95652 | 35124 ft | 444 kts | 1° |
| 2026-04-24 13:28 | 46.64104 | 134.96484 | 35129 ft | 444 kts | 1° |
| 2026-04-24 13:29 | 46.70258 | 134.97317 | 35129 ft | 444 kts | 1° |
| 2026-04-24 13:29 | 46.76409 | 134.98152 | 35127 ft | 445 kts | 1° |
| 2026-04-24 13:30 | 46.82574 | 134.98990 | 35117 ft | 445 kts | 1° |
| 2026-04-24 13:30 | 46.88743 | 134.99770 | 35127 ft | 445 kts | 1° |
| 2026-04-24 13:31 | 46.94916 | 135.00523 | 35132 ft | 445 kts | 1° |
| 2026-04-24 13:31 | 47.01082 | 135.01283 | 35126 ft | 445 kts | 1° |
| 2026-04-24 13:32 | 47.07259 | 135.02052 | 35128 ft | 445 kts | 1° |
| 2026-04-24 13:32 | 47.13436 | 135.02825 | 35128 ft | 445 kts | 1° |
| 2026-04-24 13:33 | 47.19614 | 135.03600 | 35129 ft | 445 kts | 1° |
| 2026-04-24 13:33 | 47.25783 | 135.04376 | 35138 ft | 446 kts | 1° |
| 2026-04-24 13:34 | 47.31970 | 135.05155 | 35132 ft | 446 kts | 1° |
| 2026-04-24 13:34 | 47.38163 | 135.05937 | 35123 ft | 447 kts | 1° |
| 2026-04-24 13:35 | 47.44359 | 135.06722 | 35123 ft | 447 kts | 1° |
| 2026-04-24 13:35 | 47.50547 | 135.07507 | 35126 ft | 447 kts | 1° |
| 2026-04-24 13:36 | 47.56750 | 135.08296 | 35122 ft | 447 kts | 1° |
| 2026-04-24 13:36 | 47.62960 | 135.09088 | 35123 ft | 448 kts | 1° |
| 2026-04-24 13:37 | 47.69175 | 135.09883 | 35114 ft | 448 kts | 1° |
| 2026-04-24 13:37 | 47.75383 | 135.10678 | 35115 ft | 448 kts | 1° |
| 2026-04-24 13:38 | 47.81603 | 135.11477 | 35125 ft | 449 kts | 2° |
| 2026-04-24 13:38 | 47.87829 | 135.12286 | 35117 ft | 449 kts | 2° |
| 2026-04-24 13:39 | 47.94062 | 135.13099 | 35121 ft | 450 kts | 2° |
| 2026-04-24 13:39 | 48.00292 | 135.13908 | 35114 ft | 450 kts | 1° |
| 2026-04-24 13:40 | 48.06537 | 135.14716 | 35115 ft | 450 kts | 1° |
| 2026-04-24 13:40 | 48.12788 | 135.15527 | 35115 ft | 451 kts | 2° |
| 2026-04-24 13:41 | 48.19046 | 135.16342 | 35121 ft | 451 kts | 2° |
| 2026-04-24 13:41 | 48.25300 | 135.17159 | 35127 ft | 452 kts | 2° |
| 2026-04-24 13:42 | 48.31573 | 135.17980 | 35125 ft | 453 kts | 2° |
| 2026-04-24 13:42 | 48.37852 | 135.18804 | 35112 ft | 453 kts | 2° |
| 2026-04-24 13:43 | 48.44139 | 135.19632 | 35125 ft | 453 kts | 2° |
| 2026-04-24 13:43 | 48.50444 | 135.20428 | 35209 ft | 455 kts | 358° |
| 2026-04-24 13:44 | 48.53547 | 135.19925 | 35339 ft | 449 kts | 341° |
| 2026-04-24 13:44 | 48.55479 | 135.18865 | 35484 ft | 444 kts | 332° |
| 2026-04-24 13:44 | 48.58084 | 135.16425 | 35695 ft | 438 kts | 317° |
| 2026-04-24 13:44 | 48.60350 | 135.13366 | 35851 ft | 438 kts | 315° |
| 2026-04-24 13:45 | 48.62589 | 135.10225 | 35956 ft | 439 kts | 315° |
| 2026-04-24 13:45 | 48.64822 | 135.07084 | 36064 ft | 439 kts | 315° |
| 2026-04-24 13:45 | 48.69341 | 135.00799 | 36103 ft | 442 kts | 315° |
| 2026-04-24 13:46 | 48.73874 | 134.94570 | 36120 ft | 439 kts | 315° |
| 2026-04-24 13:46 | 48.78399 | 134.88361 | 36111 ft | 438 kts | 315° |
| 2026-04-24 13:47 | 48.82905 | 134.82160 | 36115 ft | 437 kts | 315° |
| 2026-04-24 13:47 | 48.87400 | 134.75955 | 36116 ft | 436 kts | 315° |
| 2026-04-24 13:48 | 48.91885 | 134.69749 | 36125 ft | 437 kts | 315° |
| 2026-04-24 13:48 | 48.96391 | 134.63506 | 36120 ft | 439 kts | 315° |
| 2026-04-24 13:49 | 49.00915 | 134.57227 | 36118 ft | 441 kts | 315° |
| 2026-04-24 13:49 | 49.05458 | 134.50907 | 36117 ft | 443 kts | 315° |
| 2026-04-24 13:50 | 49.09686 | 134.44127 | 36122 ft | 441 kts | 302° |
| 2026-04-24 13:50 | 49.13042 | 134.36285 | 36118 ft | 442 kts | 301° |
| 2026-04-24 13:51 | 49.16370 | 134.28375 | 36117 ft | 443 kts | 301° |
| 2026-04-24 13:51 | 49.19734 | 134.20469 | 36114 ft | 444 kts | 301° |
| 2026-04-24 13:52 | 49.23111 | 134.12567 | 36111 ft | 444 kts | 301° |
| 2026-04-24 13:52 | 49.26480 | 134.04672 | 36115 ft | 443 kts | 301° |
| 2026-04-24 13:53 | 49.29846 | 133.96758 | 36120 ft | 443 kts | 301° |
| 2026-04-24 13:53 | 49.33180 | 133.88892 | 36110 ft | 443 kts | 301° |
| 2026-04-24 13:54 | 49.36542 | 133.80937 | 36117 ft | 442 kts | 300° |
| 2026-04-24 13:54 | 49.39855 | 133.73075 | 36114 ft | 441 kts | 300° |
| 2026-04-24 13:55 | 49.43181 | 133.65163 | 36108 ft | 440 kts | 300° |
| 2026-04-24 13:55 | 49.46507 | 133.57259 | 36109 ft | 440 kts | 300° |
| 2026-04-24 13:56 | 49.49823 | 133.49369 | 36104 ft | 440 kts | 300° |
| 2026-04-24 13:56 | 49.53136 | 133.41461 | 36122 ft | 439 kts | 300° |
| 2026-04-24 13:57 | 49.56444 | 133.33538 | 36111 ft | 440 kts | 300° |
| 2026-04-24 13:57 | 49.59748 | 133.25597 | 36096 ft | 440 kts | 300° |
| 2026-04-24 13:58 | 49.63045 | 133.17651 | 36107 ft | 441 kts | 300° |
| 2026-04-24 13:58 | 49.66346 | 133.09672 | 36094 ft | 441 kts | 300° |
| 2026-04-24 13:59 | 49.69626 | 133.01720 | 36098 ft | 442 kts | 300° |
| 2026-04-24 13:59 | 49.72954 | 132.93627 | 36091 ft | 444 kts | 300° |
| 2026-04-24 14:00 | 49.76236 | 132.85619 | 36089 ft | 445 kts | 300° |
| 2026-04-24 14:00 | 49.79548 | 132.77517 | 36087 ft | 446 kts | 300° |
| 2026-04-24 14:01 | 49.82862 | 132.69383 | 36077 ft | 447 kts | 300° |
| 2026-04-24 14:01 | 49.86174 | 132.61227 | 36077 ft | 448 kts | 300° |
| 2026-04-24 14:02 | 49.89494 | 132.53027 | 36077 ft | 449 kts | 300° |
| 2026-04-24 14:02 | 49.92814 | 132.44803 | 36076 ft | 450 kts | 300° |
| 2026-04-24 14:03 | 49.96133 | 132.36554 | 36091 ft | 451 kts | 299° |
| 2026-04-24 14:03 | 49.99430 | 132.28337 | 36077 ft | 451 kts | 299° |
| 2026-04-24 14:04 | 50.02770 | 132.20010 | 36070 ft | 452 kts | 301° |
| 2026-04-24 14:04 | 50.06873 | 132.12561 | 36074 ft | 455 kts | 312° |
| 2026-04-24 14:05 | 50.11311 | 132.05605 | 36083 ft | 455 kts | 311° |
| 2026-04-24 14:05 | 50.15723 | 131.98538 | 36069 ft | 455 kts | 311° |
| 2026-04-24 14:06 | 50.20114 | 131.91409 | 36050 ft | 455 kts | 311° |
| 2026-04-24 14:06 | 50.24505 | 131.84259 | 36055 ft | 456 kts | 311° |
| 2026-04-24 14:07 | 50.28896 | 131.77089 | 36072 ft | 457 kts | 311° |
| 2026-04-24 14:07 | 50.33299 | 131.69878 | 36046 ft | 459 kts | 311° |
| 2026-04-24 14:08 | 50.37707 | 131.62639 | 36040 ft | 461 kts | 311° |
| 2026-04-24 14:08 | 50.42132 | 131.55350 | 36039 ft | 462 kts | 311° |
| 2026-04-24 14:09 | 50.46564 | 131.48030 | 36038 ft | 463 kts | 311° |
| 2026-04-24 14:09 | 50.51001 | 131.40678 | 36037 ft | 464 kts | 310° |
| 2026-04-24 14:10 | 50.55429 | 131.33321 | 36018 ft | 464 kts | 310° |
| 2026-04-24 14:10 | 50.59854 | 131.25948 | 36016 ft | 463 kts | 310° |
| 2026-04-24 14:11 | 50.64265 | 131.18575 | 36014 ft | 462 kts | 310° |
| 2026-04-24 14:12 | 50.70857 | 131.07517 | 36018 ft | 461 kts | 309° |
| 2026-04-24 14:12 | 50.75214 | 131.00181 | 36001 ft | 461 kts | 309° |
| 2026-04-24 14:13 | 50.79613 | 130.92753 | 35996 ft | 460 kts | 309° |
| 2026-04-24 14:13 | 50.83953 | 130.85404 | 36000 ft | 460 kts | 309° |
| 2026-04-24 14:14 | 50.88323 | 130.77982 | 35998 ft | 461 kts | 309° |
| 2026-04-24 14:14 | 50.94879 | 130.66805 | 35996 ft | 462 kts | 309° |
| 2026-04-24 14:15 | 50.99257 | 130.59312 | 35983 ft | 463 kts | 309° |
| 2026-04-24 14:15 | 51.03632 | 130.51804 | 35987 ft | 464 kts | 309° |
| 2026-04-24 14:16 | 51.08017 | 130.44254 | 35974 ft | 465 kts | 309° |
| 2026-04-24 14:17 | 51.14595 | 130.32889 | 35969 ft | 466 kts | 309° |
| 2026-04-24 14:17 | 51.21178 | 130.21460 | 35965 ft | 467 kts | 309° |
| 2026-04-24 14:18 | 51.25560 | 130.13823 | 35966 ft | 467 kts | 309° |
| 2026-04-24 14:18 | 51.29951 | 130.06149 | 35966 ft | 468 kts | 309° |
| 2026-04-24 14:19 | 51.34337 | 129.98451 | 35963 ft | 468 kts | 308° |
| 2026-04-24 14:19 | 51.38654 | 129.90664 | 35965 ft | 469 kts | 308° |
| 2026-04-24 14:20 | 51.42958 | 129.82803 | 35963 ft | 470 kts | 308° |
| 2026-04-24 14:20 | 51.47241 | 129.74971 | 35952 ft | 470 kts | 308° |
| 2026-04-24 14:21 | 51.51561 | 129.67068 | 35953 ft | 471 kts | 308° |
| 2026-04-24 14:21 | 51.55877 | 129.59152 | 35952 ft | 472 kts | 308° |
| 2026-04-24 14:22 | 51.60207 | 129.51187 | 35959 ft | 473 kts | 308° |
| 2026-04-24 14:23 | 51.66702 | 129.39191 | 35939 ft | 474 kts | 308° |
| 2026-04-24 14:23 | 51.71037 | 129.31153 | 35938 ft | 475 kts | 308° |
| 2026-04-24 14:24 | 51.75375 | 129.23083 | 35944 ft | 476 kts | 308° |
| 2026-04-24 14:24 | 51.79717 | 129.14979 | 35936 ft | 477 kts | 308° |
| 2026-04-24 14:25 | 51.83324 | 129.08227 | 35933 ft | 478 kts | 308° |
| 2026-04-24 14:25 | 51.88400 | 128.98696 | 35933 ft | 479 kts | 307° |
| 2026-04-24 14:26 | 51.92747 | 128.90505 | 35931 ft | 480 kts | 307° |
| 2026-04-24 14:26 | 51.97066 | 128.82338 | 35927 ft | 480 kts | 307° |
| 2026-04-24 14:27 | 52.01436 | 128.74050 | 35916 ft | 481 kts | 307° |
| 2026-04-24 14:27 | 52.05751 | 128.65839 | 35920 ft | 481 kts | 307° |
| 2026-04-24 14:28 | 52.10094 | 128.57548 | 35922 ft | 482 kts | 307° |
| 2026-04-24 14:28 | 52.14435 | 128.49233 | 35915 ft | 482 kts | 307° |
| 2026-04-24 14:29 | 52.18766 | 128.40909 | 35905 ft | 482 kts | 307° |
| 2026-04-24 14:29 | 52.23101 | 128.32550 | 35915 ft | 482 kts | 307° |
| 2026-04-24 14:30 | 52.26698 | 128.25594 | 35915 ft | 483 kts | 307° |
| 2026-04-24 14:30 | 52.31766 | 128.15759 | 35914 ft | 484 kts | 307° |
| 2026-04-24 14:31 | 52.36090 | 128.07339 | 35912 ft | 484 kts | 307° |
| 2026-04-24 14:31 | 52.40417 | 127.98883 | 35902 ft | 484 kts | 307° |
| 2026-04-24 14:32 | 52.44742 | 127.90403 | 35893 ft | 485 kts | 307° |
| 2026-04-24 14:32 | 52.49065 | 127.81899 | 35901 ft | 485 kts | 307° |
| 2026-04-24 14:33 | 52.53375 | 127.73391 | 35905 ft | 485 kts | 307° |
| 2026-04-24 14:33 | 52.57688 | 127.64849 | 35901 ft | 485 kts | 306° |
| 2026-04-24 14:34 | 52.61996 | 127.56284 | 35918 ft | 486 kts | 307° |
| 2026-04-24 14:34 | 52.66278 | 127.47748 | 35902 ft | 487 kts | 306° |
| 2026-04-24 14:35 | 52.70571 | 127.39137 | 35904 ft | 487 kts | 306° |
| 2026-04-24 14:35 | 52.74844 | 127.30465 | 35907 ft | 487 kts | 306° |
| 2026-04-24 14:36 | 52.78418 | 127.23189 | 35915 ft | 487 kts | 306° |
| 2026-04-24 14:36 | 52.82689 | 127.14480 | 35913 ft | 487 kts | 306° |
| 2026-04-24 14:37 | 52.86928 | 127.05816 | 35914 ft | 487 kts | 306° |
| 2026-04-24 14:37 | 52.91191 | 126.97084 | 35915 ft | 487 kts | 306° |
| 2026-04-24 14:38 | 52.95439 | 126.88351 | 35937 ft | 487 kts | 306° |
| 2026-04-24 14:38 | 52.99689 | 126.79580 | 35919 ft | 487 kts | 306° |
| 2026-04-24 14:39 | 53.03934 | 126.70791 | 35915 ft | 488 kts | 306° |
| 2026-04-24 14:39 | 53.08172 | 126.61983 | 35916 ft | 488 kts | 306° |
| 2026-04-24 14:40 | 53.12396 | 126.53174 | 35938 ft | 487 kts | 306° |
| 2026-04-24 14:40 | 53.16622 | 126.44330 | 35932 ft | 488 kts | 306° |
| 2026-04-24 14:41 | 53.20843 | 126.35465 | 35925 ft | 488 kts | 306° |
| 2026-04-24 14:41 | 53.25055 | 126.26587 | 35930 ft | 487 kts | 306° |
| 2026-04-24 14:42 | 53.29252 | 126.17711 | 35930 ft | 487 kts | 306° |
| 2026-04-24 14:42 | 53.33449 | 126.08802 | 35940 ft | 487 kts | 306° |
| 2026-04-24 14:43 | 53.37639 | 125.99876 | 35934 ft | 487 kts | 306° |
| 2026-04-24 14:43 | 53.41822 | 125.90934 | 35941 ft | 487 kts | 306° |
| 2026-04-24 14:44 | 53.45992 | 125.81975 | 35942 ft | 487 kts | 304° |
| 2026-04-24 14:44 | 53.49299 | 125.72199 | 35958 ft | 481 kts | 291° |
| 2026-04-24 14:45 | 53.52021 | 125.61933 | 35947 ft | 481 kts | 291° |
| 2026-04-24 14:45 | 53.54722 | 125.51732 | 35948 ft | 481 kts | 291° |
| 2026-04-24 14:46 | 53.57476 | 125.41481 | 35944 ft | 481 kts | 291° |
| 2026-04-24 14:46 | 53.60258 | 125.31167 | 35962 ft | 480 kts | 291° |
| 2026-04-24 14:47 | 53.62991 | 125.20994 | 35946 ft | 480 kts | 291° |
| 2026-04-24 14:47 | 53.65736 | 125.10724 | 35948 ft | 480 kts | 291° |
| 2026-04-24 14:48 | 53.68469 | 125.00445 | 35949 ft | 480 kts | 291° |
| 2026-04-24 14:48 | 53.71187 | 124.90175 | 35950 ft | 480 kts | 291° |
| 2026-04-24 14:49 | 53.73900 | 124.79881 | 35954 ft | 480 kts | 291° |
| 2026-04-24 14:49 | 53.76602 | 124.69577 | 35954 ft | 479 kts | 291° |
| 2026-04-24 14:50 | 53.79294 | 124.59269 | 35948 ft | 479 kts | 291° |
| 2026-04-24 14:50 | 53.81971 | 124.48971 | 35946 ft | 478 kts | 291° |
| 2026-04-24 14:51 | 53.84641 | 124.38651 | 35958 ft | 478 kts | 292° |
| 2026-04-24 14:51 | 53.87302 | 124.28324 | 35948 ft | 478 kts | 291° |
| 2026-04-24 14:52 | 53.89937 | 124.18060 | 35940 ft | 477 kts | 291° |
| 2026-04-24 14:52 | 53.92591 | 124.07677 | 35945 ft | 477 kts | 291° |
| 2026-04-24 14:53 | 53.95204 | 123.97412 | 35950 ft | 477 kts | 291° |
| 2026-04-24 14:53 | 53.97823 | 123.87069 | 35945 ft | 476 kts | 292° |
| 2026-04-24 14:54 | 54.00432 | 123.76718 | 35942 ft | 476 kts | 292° |
| 2026-04-24 14:54 | 54.03027 | 123.66376 | 35947 ft | 476 kts | 291° |
| 2026-04-24 14:55 | 54.05181 | 123.57754 | 35941 ft | 476 kts | 291° |
| 2026-04-24 14:55 | 54.08193 | 123.45644 | 35948 ft | 475 kts | 292° |
| 2026-04-24 14:56 | 54.10760 | 123.35266 | 35948 ft | 475 kts | 292° |
| 2026-04-24 14:56 | 54.13317 | 123.24881 | 35943 ft | 475 kts | 292° |
| 2026-04-24 14:57 | 54.15861 | 123.14501 | 35945 ft | 475 kts | 291° |
| 2026-04-24 14:57 | 54.18400 | 123.04090 | 35942 ft | 475 kts | 291° |
| 2026-04-24 14:58 | 54.20931 | 122.93665 | 35954 ft | 475 kts | 291° |
| 2026-04-24 14:58 | 54.23449 | 122.83244 | 35945 ft | 475 kts | 291° |
| 2026-04-24 14:59 | 54.25962 | 122.72791 | 35955 ft | 475 kts | 291° |
| 2026-04-24 14:59 | 54.28467 | 122.62322 | 35946 ft | 475 kts | 291° |
| 2026-04-24 15:00 | 54.30960 | 122.51850 | 35952 ft | 475 kts | 292° |
| 2026-04-24 15:00 | 54.33448 | 122.41351 | 35963 ft | 475 kts | 291° |
| 2026-04-24 15:01 | 54.35911 | 122.30904 | 35959 ft | 476 kts | 291° |
| 2026-04-24 15:01 | 54.38379 | 122.20390 | 35967 ft | 476 kts | 291° |
| 2026-04-24 15:02 | 54.40845 | 122.09837 | 35966 ft | 476 kts | 291° |
| 2026-04-24 15:02 | 54.43053 | 121.99114 | 35957 ft | 476 kts | 288° |
| 2026-04-24 15:03 | 54.45026 | 121.88250 | 35983 ft | 476 kts | 287° |
| 2026-04-24 15:03 | 54.46987 | 121.77388 | 35980 ft | 476 kts | 287° |
| 2026-04-24 15:04 | 54.48975 | 121.66516 | 35983 ft | 476 kts | 288° |
| 2026-04-24 15:04 | 54.50968 | 121.55650 | 35973 ft | 476 kts | 288° |
| 2026-04-24 15:05 | 54.52955 | 121.44775 | 35976 ft | 476 kts | 288° |
| 2026-04-24 15:05 | 54.54931 | 121.33888 | 35976 ft | 476 kts | 288° |
| 2026-04-24 15:06 | 54.56895 | 121.22997 | 35974 ft | 477 kts | 287° |
| 2026-04-24 15:06 | 54.58855 | 121.12063 | 35977 ft | 478 kts | 287° |
| 2026-04-24 15:07 | 54.60807 | 121.01105 | 35974 ft | 478 kts | 287° |
| 2026-04-24 15:07 | 54.62749 | 120.90139 | 35967 ft | 478 kts | 287° |
| 2026-04-24 15:08 | 54.64678 | 120.79180 | 35973 ft | 478 kts | 287° |
| 2026-04-24 15:08 | 54.66599 | 120.68198 | 35962 ft | 477 kts | 287° |
| 2026-04-24 15:09 | 54.68508 | 120.57216 | 35961 ft | 477 kts | 287° |
| 2026-04-24 15:09 | 54.70402 | 120.46256 | 35970 ft | 476 kts | 287° |
| 2026-04-24 15:10 | 54.72274 | 120.35359 | 35966 ft | 475 kts | 287° |
| 2026-04-24 15:10 | 54.74145 | 120.24398 | 35973 ft | 474 kts | 287° |
| 2026-04-24 15:11 | 54.76003 | 120.13443 | 35978 ft | 474 kts | 287° |
| 2026-04-24 15:11 | 54.77847 | 120.02505 | 35961 ft | 474 kts | 287° |
| 2026-04-24 15:12 | 54.79682 | 119.91553 | 35975 ft | 473 kts | 287° |
| 2026-04-24 15:12 | 54.82409 | 119.75143 | 35977 ft | 472 kts | 287° |
| 2026-04-24 15:13 | 54.84214 | 119.64195 | 35984 ft | 472 kts | 287° |
| 2026-04-24 15:13 | 54.86009 | 119.53245 | 35986 ft | 472 kts | 286° |
| 2026-04-24 15:14 | 54.87791 | 119.42296 | 35995 ft | 470 kts | 287° |
| 2026-04-24 15:14 | 54.89558 | 119.31381 | 35988 ft | 469 kts | 287° |
| 2026-04-24 15:15 | 54.91314 | 119.20466 | 35995 ft | 468 kts | 287° |
| 2026-04-24 15:15 | 54.93061 | 119.09566 | 36000 ft | 467 kts | 287° |
| 2026-04-24 15:16 | 54.94782 | 118.98763 | 35992 ft | 466 kts | 287° |
| 2026-04-24 15:16 | 54.96495 | 118.87935 | 36005 ft | 464 kts | 287° |
| 2026-04-24 15:17 | 54.98196 | 118.77122 | 36004 ft | 462 kts | 287° |
| 2026-04-24 15:17 | 54.99881 | 118.66337 | 36012 ft | 461 kts | 287° |
| 2026-04-24 15:18 | 55.01551 | 118.55573 | 36014 ft | 459 kts | 287° |
| 2026-04-24 15:18 | 55.03207 | 118.44838 | 36005 ft | 459 kts | 287° |
| 2026-04-24 15:19 | 55.04852 | 118.34093 | 36019 ft | 458 kts | 287° |
| 2026-04-24 15:19 | 55.06488 | 118.23349 | 36015 ft | 458 kts | 287° |
| 2026-04-24 15:20 | 55.08113 | 118.12601 | 36019 ft | 458 kts | 287° |
| 2026-04-24 15:20 | 55.09728 | 118.01855 | 36019 ft | 459 kts | 287° |
| 2026-04-24 15:21 | 55.11293 | 117.91047 | 36019 ft | 459 kts | 286° |
| 2026-04-24 15:21 | 55.12822 | 117.80288 | 36013 ft | 459 kts | 286° |
| 2026-04-24 15:22 | 55.14360 | 117.69445 | 36013 ft | 460 kts | 286° |
| 2026-04-24 15:23 | 55.16661 | 117.53165 | 36013 ft | 460 kts | 286° |
| 2026-04-24 15:23 | 55.19016 | 117.36880 | 36000 ft | 460 kts | 287° |
| 2026-04-24 15:25 | 55.22629 | 117.11578 | 36018 ft | 459 kts | 286° |
| 2026-04-24 15:26 | 55.26444 | 116.84466 | 36001 ft | 458 kts | 287° |
| 2026-04-24 15:27 | 55.30924 | 116.52082 | 36029 ft | 454 kts | 287° |
| 2026-04-24 15:29 | 55.35279 | 116.19795 | 36022 ft | 451 kts | 287° |
| 2026-04-24 15:31 | 55.40148 | 115.82454 | 36055 ft | 445 kts | 287° |
| 2026-04-24 15:33 | 55.45528 | 115.40089 | 36073 ft | 441 kts | 287° |
| 2026-04-24 15:34 | 55.48785 | 115.13797 | 36081 ft | 439 kts | 287° |
| 2026-04-24 15:35 | 55.51976 | 114.87553 | 36086 ft | 437 kts | 287° |
| 2026-04-24 15:36 | 55.53234 | 114.77067 | 36117 ft | 436 kts | 287° |
| 2026-04-24 15:36 | 55.55101 | 114.61346 | 36092 ft | 436 kts | 287° |
| 2026-04-24 15:37 | 55.56334 | 114.50865 | 36117 ft | 436 kts | 287° |
| 2026-04-24 15:37 | 55.57556 | 114.40392 | 36101 ft | 436 kts | 286° |
| 2026-04-24 15:38 | 55.58770 | 114.29904 | 36114 ft | 435 kts | 286° |
| 2026-04-24 15:38 | 55.59975 | 114.19415 | 36110 ft | 435 kts | 286° |
| 2026-04-24 15:39 | 55.61160 | 114.09001 | 36108 ft | 434 kts | 287° |
| 2026-04-24 15:39 | 55.62347 | 113.98496 | 36112 ft | 432 kts | 287° |
| 2026-04-24 15:40 | 55.63511 | 113.88118 | 36117 ft | 433 kts | 286° |
| 2026-04-24 15:40 | 55.64672 | 113.77671 | 36118 ft | 432 kts | 286° |
| 2026-04-24 15:41 | 55.65821 | 113.67254 | 36122 ft | 431 kts | 286° |
| 2026-04-24 15:41 | 55.66961 | 113.56829 | 36105 ft | 431 kts | 286° |
| 2026-04-24 15:42 | 55.68086 | 113.46441 | 36118 ft | 428 kts | 286° |
| 2026-04-24 15:42 | 55.69199 | 113.36089 | 36130 ft | 427 kts | 286° |
| 2026-04-24 15:43 | 55.70303 | 113.25748 | 36134 ft | 427 kts | 286° |
| 2026-04-24 15:43 | 55.71392 | 113.15450 | 36124 ft | 424 kts | 285° |
| 2026-04-24 15:44 | 55.72466 | 113.05194 | 36124 ft | 421 kts | 285° |
| 2026-04-24 15:44 | 55.73525 | 112.95007 | 36134 ft | 418 kts | 285° |
| 2026-04-24 15:45 | 55.74566 | 112.84900 | 36126 ft | 415 kts | 285° |
| 2026-04-24 15:45 | 55.75592 | 112.74868 | 36147 ft | 413 kts | 285° |
| 2026-04-24 15:46 | 55.76608 | 112.64848 | 36148 ft | 412 kts | 285° |
| 2026-04-24 15:46 | 55.77608 | 112.54904 | 36160 ft | 411 kts | 285° |
| 2026-04-24 15:47 | 55.78604 | 112.44907 | 36164 ft | 412 kts | 285° |
| 2026-04-24 15:47 | 55.79597 | 112.34861 | 36147 ft | 413 kts | 284° |
| 2026-04-24 15:48 | 55.80583 | 112.24789 | 36167 ft | 414 kts | 284° |
| 2026-04-24 15:48 | 55.81564 | 112.14674 | 36158 ft | 416 kts | 284° |
| 2026-04-24 15:49 | 55.82542 | 112.04504 | 36137 ft | 418 kts | 284° |
| 2026-04-24 15:49 | 55.83513 | 111.94315 | 36143 ft | 419 kts | 284° |
| 2026-04-24 15:50 | 55.84476 | 111.84099 | 36132 ft | 418 kts | 284° |
| 2026-04-24 15:50 | 55.85431 | 111.73889 | 36128 ft | 417 kts | 284° |
| 2026-04-24 15:51 | 55.86373 | 111.63719 | 36135 ft | 417 kts | 284° |
| 2026-04-24 15:51 | 55.87310 | 111.53517 | 36123 ft | 418 kts | 284° |
| 2026-04-24 15:52 | 55.88240 | 111.43309 | 36127 ft | 417 kts | 284° |
| 2026-04-24 15:52 | 55.89159 | 111.33105 | 36102 ft | 417 kts | 283° |
| 2026-04-24 15:53 | 55.90070 | 111.22907 | 36125 ft | 417 kts | 283° |
| 2026-04-24 15:53 | 55.90973 | 111.12710 | 36127 ft | 417 kts | 283° |
| 2026-04-24 15:54 | 55.91870 | 111.02481 | 36135 ft | 418 kts | 283° |
| 2026-04-24 15:54 | 55.92760 | 110.92233 | 36127 ft | 418 kts | 283° |
| 2026-04-24 15:55 | 55.93643 | 110.81972 | 36127 ft | 419 kts | 283° |
| 2026-04-24 15:55 | 55.94517 | 110.71718 | 36113 ft | 419 kts | 283° |
| 2026-04-24 15:56 | 55.95375 | 110.61430 | 36113 ft | 419 kts | 282° |
| 2026-04-24 15:56 | 55.96221 | 110.51125 | 36115 ft | 420 kts | 282° |
| 2026-04-24 15:57 | 55.97057 | 110.40867 | 36109 ft | 420 kts | 282° |
| 2026-04-24 15:57 | 55.97895 | 110.30480 | 36110 ft | 420 kts | 282° |
| 2026-04-24 15:58 | 55.98721 | 110.20134 | 36090 ft | 421 kts | 282° |
| 2026-04-24 15:58 | 55.99534 | 110.09846 | 36096 ft | 421 kts | 281° |
| 2026-04-24 15:59 | 56.00345 | 109.99477 | 36100 ft | 421 kts | 281° |
| 2026-04-24 15:59 | 56.01148 | 109.89096 | 36102 ft | 422 kts | 281° |
| 2026-04-24 16:00 | 56.01947 | 109.78702 | 36106 ft | 422 kts | 281° |
| 2026-04-24 16:00 | 56.02741 | 109.68311 | 36104 ft | 423 kts | 281° |
| 2026-04-24 16:01 | 56.03527 | 109.57891 | 36101 ft | 423 kts | 280° |
| 2026-04-24 16:01 | 56.04305 | 109.47471 | 36100 ft | 423 kts | 280° |
| 2026-04-24 16:02 | 56.05074 | 109.37037 | 36103 ft | 423 kts | 280° |
| 2026-04-24 16:02 | 56.05833 | 109.26621 | 36099 ft | 423 kts | 280° |
| 2026-04-24 16:03 | 56.06584 | 109.16185 | 36093 ft | 423 kts | 280° |
| 2026-04-24 16:03 | 56.07328 | 109.05731 | 36086 ft | 423 kts | 279° |
| 2026-04-24 16:04 | 56.08063 | 108.95271 | 36079 ft | 423 kts | 279° |
| 2026-04-24 16:04 | 56.08789 | 108.84828 | 36092 ft | 423 kts | 279° |
| 2026-04-24 16:05 | 56.09865 | 108.69114 | 36077 ft | 424 kts | 279° |
| 2026-04-24 16:06 | 56.10923 | 108.53401 | 36070 ft | 423 kts | 279° |
| 2026-04-24 16:07 | 56.11961 | 108.37700 | 36062 ft | 423 kts | 278° |
| 2026-04-24 16:07 | 56.12979 | 108.21986 | 36058 ft | 423 kts | 278° |
| 2026-04-24 16:08 | 56.13974 | 108.06316 | 36056 ft | 423 kts | 278° |
| 2026-04-24 16:09 | 56.14952 | 107.90592 | 36046 ft | 423 kts | 277° |
| 2026-04-24 16:09 | 56.15592 | 107.80113 | 36049 ft | 423 kts | 277° |
| 2026-04-24 16:11 | 56.17157 | 107.53839 | 36041 ft | 424 kts | 277° |
| 2026-04-24 16:11 | 56.17769 | 107.43311 | 36041 ft | 424 kts | 277° |
| 2026-04-24 16:12 | 56.18670 | 107.27507 | 36030 ft | 425 kts | 276° |
| 2026-04-24 16:13 | 56.19554 | 107.11666 | 36040 ft | 426 kts | 276° |
| 2026-04-24 16:14 | 56.20553 | 106.92243 | 36041 ft | 426 kts | 276° |
| 2026-04-24 16:14 | 56.21373 | 106.76330 | 36035 ft | 427 kts | 276° |
| 2026-04-24 16:15 | 56.22179 | 106.60407 | 36025 ft | 427 kts | 276° |
| 2026-04-24 16:16 | 56.22980 | 106.44482 | 36017 ft | 427 kts | 276° |
| 2026-04-24 16:17 | 56.24266 | 106.17928 | 36015 ft | 427 kts | 275° |
| 2026-04-24 16:18 | 56.25256 | 105.96610 | 36025 ft | 428 kts | 275° |
| 2026-04-24 16:19 | 56.25977 | 105.80567 | 36020 ft | 429 kts | 275° |
| 2026-04-24 16:20 | 56.26678 | 105.64493 | 36014 ft | 430 kts | 275° |
| 2026-04-24 16:20 | 56.27361 | 105.48387 | 36016 ft | 431 kts | 275° |
| 2026-04-24 16:21 | 56.28021 | 105.32235 | 36009 ft | 431 kts | 275° |
| 2026-04-24 16:22 | 56.28447 | 105.21464 | 36001 ft | 431 kts | 275° |
| 2026-04-24 16:22 | 56.29070 | 105.05315 | 35994 ft | 432 kts | 275° |
| 2026-04-24 16:23 | 56.29475 | 104.94529 | 35996 ft | 432 kts | 275° |
| 2026-04-24 16:24 | 56.30062 | 104.78424 | 35988 ft | 432 kts | 274° |
| 2026-04-24 16:24 | 56.30443 | 104.67632 | 35988 ft | 432 kts | 274° |
| 2026-04-24 16:25 | 56.30817 | 104.56786 | 35975 ft | 432 kts | 274° |
| 2026-04-24 16:25 | 56.31177 | 104.46068 | 35972 ft | 431 kts | 274° |
| 2026-04-24 16:26 | 56.31703 | 104.29899 | 35968 ft | 431 kts | 274° |
| 2026-04-24 16:27 | 56.32209 | 104.13735 | 35973 ft | 431 kts | 274° |
| 2026-04-24 16:27 | 56.32523 | 104.02949 | 35959 ft | 431 kts | 274° |
| 2026-04-24 16:28 | 56.32824 | 103.92164 | 35958 ft | 431 kts | 274° |
| 2026-04-24 16:28 | 56.33261 | 103.76006 | 35949 ft | 430 kts | 274° |
| 2026-04-24 16:29 | 56.33539 | 103.65307 | 35946 ft | 430 kts | 274° |
| 2026-04-24 16:30 | 56.34074 | 103.43794 | 35949 ft | 430 kts | 274° |
| 2026-04-24 16:30 | 56.34342 | 103.33031 | 35941 ft | 430 kts | 274° |
| 2026-04-24 16:31 | 56.34604 | 103.22269 | 35951 ft | 430 kts | 274° |
| 2026-04-24 16:31 | 56.34856 | 103.11501 | 35944 ft | 430 kts | 274° |
| 2026-04-24 16:32 | 56.35098 | 103.00743 | 35939 ft | 430 kts | 274° |
| 2026-04-24 16:32 | 56.35331 | 102.89962 | 35944 ft | 430 kts | 274° |
| 2026-04-24 16:33 | 56.35554 | 102.79247 | 35948 ft | 430 kts | 273° |
| 2026-04-24 16:33 | 56.35768 | 102.68457 | 35935 ft | 430 kts | 273° |
| 2026-04-24 16:34 | 56.35975 | 102.57679 | 35939 ft | 431 kts | 273° |
| 2026-04-24 16:34 | 56.36169 | 102.46875 | 35919 ft | 431 kts | 273° |
| 2026-04-24 16:35 | 56.36339 | 102.36065 | 35916 ft | 431 kts | 273° |
| 2026-04-24 16:35 | 56.36499 | 102.25254 | 35902 ft | 431 kts | 273° |
| 2026-04-24 16:36 | 56.36651 | 102.14456 | 35894 ft | 431 kts | 273° |
| 2026-04-24 16:36 | 56.36796 | 102.03630 | 35888 ft | 432 kts | 272° |
| 2026-04-24 16:37 | 56.36931 | 101.92796 | 35886 ft | 432 kts | 272° |
| 2026-04-24 16:37 | 56.37058 | 101.81968 | 35888 ft | 432 kts | 272° |
| 2026-04-24 16:38 | 56.37168 | 101.71187 | 35884 ft | 433 kts | 271° |
| 2026-04-24 16:38 | 56.36375 | 101.60411 | 35896 ft | 435 kts | 260° |
| 2026-04-24 16:39 | 56.35119 | 101.49717 | 35875 ft | 436 kts | 261° |
| 2026-04-24 16:39 | 56.33885 | 101.39032 | 35890 ft | 436 kts | 261° |
| 2026-04-24 16:40 | 56.32662 | 101.28314 | 35878 ft | 437 kts | 261° |
| 2026-04-24 16:40 | 56.31436 | 101.17606 | 35911 ft | 436 kts | 261° |
| 2026-04-24 16:41 | 56.30203 | 101.06917 | 35918 ft | 435 kts | 261° |
| 2026-04-24 16:41 | 56.28970 | 100.96318 | 35931 ft | 435 kts | 261° |
| 2026-04-24 16:42 | 56.27713 | 100.85608 | 35929 ft | 435 kts | 261° |
| 2026-04-24 16:42 | 56.26465 | 100.75029 | 35954 ft | 435 kts | 261° |
| 2026-04-24 16:43 | 56.25203 | 100.64389 | 35957 ft | 435 kts | 260° |
| 2026-04-24 16:43 | 56.23932 | 100.53756 | 35968 ft | 435 kts | 260° |
| 2026-04-24 16:44 | 56.22654 | 100.43147 | 35968 ft | 435 kts | 260° |
| 2026-04-24 16:44 | 56.21358 | 100.32529 | 35979 ft | 435 kts | 260° |
| 2026-04-24 16:45 | 56.20051 | 100.21921 | 36001 ft | 435 kts | 260° |
| 2026-04-24 16:45 | 56.18740 | 100.11336 | 35998 ft | 435 kts | 260° |
| 2026-04-24 16:46 | 56.17420 | 100.00738 | 36023 ft | 435 kts | 260° |
| 2026-04-24 16:46 | 56.16089 | 99.90142 | 36006 ft | 435 kts | 260° |
| 2026-04-24 16:47 | 56.14766 | 99.79623 | 36024 ft | 435 kts | 260° |
| 2026-04-24 16:47 | 56.13428 | 99.69053 | 36021 ft | 435 kts | 260° |
| 2026-04-24 16:48 | 56.12080 | 99.58482 | 36032 ft | 435 kts | 260° |
| 2026-04-24 16:48 | 56.10724 | 99.47927 | 36048 ft | 434 kts | 260° |
| 2026-04-24 16:49 | 56.09361 | 99.37377 | 36029 ft | 435 kts | 260° |
| 2026-04-24 16:49 | 56.08215 | 99.26803 | 36038 ft | 431 kts | 268° |
| 2026-04-24 16:50 | 56.07901 | 99.16097 | 36044 ft | 431 kts | 269° |
| 2026-04-24 16:50 | 56.07579 | 99.05390 | 36065 ft | 430 kts | 269° |
| 2026-04-24 16:51 | 56.07215 | 98.94693 | 36061 ft | 430 kts | 269° |
| 2026-04-24 16:51 | 56.06837 | 98.84014 | 36068 ft | 430 kts | 269° |
| 2026-04-24 16:52 | 56.06456 | 98.73318 | 36067 ft | 431 kts | 269° |
| 2026-04-24 16:52 | 56.06076 | 98.62690 | 36075 ft | 431 kts | 269° |
| 2026-04-24 16:53 | 56.05685 | 98.51987 | 36074 ft | 431 kts | 269° |
| 2026-04-24 16:53 | 56.05284 | 98.41284 | 36080 ft | 431 kts | 269° |
| 2026-04-24 16:54 | 56.04874 | 98.30607 | 36090 ft | 431 kts | 269° |
| 2026-04-24 16:54 | 56.04454 | 98.19913 | 36083 ft | 431 kts | 268° |
| 2026-04-24 16:55 | 56.04027 | 98.09222 | 36085 ft | 430 kts | 269° |
| 2026-04-24 16:55 | 56.03590 | 97.98547 | 36090 ft | 430 kts | 269° |
| 2026-04-24 16:56 | 56.03122 | 97.87907 | 36101 ft | 429 kts | 269° |
| 2026-04-24 16:56 | 56.02636 | 97.77276 | 36099 ft | 428 kts | 269° |
| 2026-04-24 16:57 | 56.02146 | 97.66734 | 36106 ft | 428 kts | 268° |
| 2026-04-24 16:57 | 56.01647 | 97.56131 | 36106 ft | 428 kts | 268° |
| 2026-04-24 16:58 | 56.01142 | 97.45555 | 36106 ft | 428 kts | 268° |
| 2026-04-24 16:58 | 56.00626 | 97.34968 | 36112 ft | 427 kts | 268° |
| 2026-04-24 16:59 | 56.00103 | 97.24411 | 36112 ft | 426 kts | 268° |
| 2026-04-24 17:00 | 55.99304 | 97.08645 | 36117 ft | 424 kts | 268° |
| 2026-04-24 17:00 | 55.98492 | 96.93000 | 36117 ft | 423 kts | 268° |
| 2026-04-24 17:01 | 55.97657 | 96.77311 | 36123 ft | 423 kts | 268° |
| 2026-04-24 17:02 | 55.96805 | 96.61689 | 36119 ft | 421 kts | 267° |
| 2026-04-24 17:02 | 55.96228 | 96.51307 | 36118 ft | 420 kts | 267° |
| 2026-04-24 17:03 | 55.95348 | 96.35781 | 36124 ft | 419 kts | 267° |
| 2026-04-24 17:04 | 55.94751 | 96.25435 | 36116 ft | 419 kts | 267° |
| 2026-04-24 17:04 | 55.93845 | 96.10025 | 36118 ft | 418 kts | 267° |
| 2026-04-24 17:05 | 55.93229 | 95.99729 | 36127 ft | 417 kts | 267° |
| 2026-04-24 17:06 | 55.92290 | 95.84312 | 36124 ft | 417 kts | 267° |
| 2026-04-24 17:06 | 55.91331 | 95.68903 | 36109 ft | 417 kts | 267° |
| 2026-04-24 17:07 | 55.90687 | 95.58719 | 36127 ft | 416 kts | 266° |
| 2026-04-24 17:07 | 55.90027 | 95.48410 | 35689 ft | 421 kts | 266° |
| 2026-04-24 17:08 | 55.89365 | 95.38236 | 34536 ft | 414 kts | 267° |
| 2026-04-24 17:08 | 55.89032 | 95.33182 | 34038 ft | 408 kts | 267° |
| 2026-04-24 17:08 | 55.88699 | 95.28146 | 32983 ft | 410 kts | 267° |
| 2026-04-24 17:09 | 55.88038 | 95.18257 | 31727 ft | 396 kts | 268° |
| 2026-04-24 17:09 | 55.87382 | 95.08539 | 30316 ft | 387 kts | 268° |
| 2026-04-24 17:10 | 55.87058 | 95.03791 | 29223 ft | 388 kts | 268° |
| 2026-04-24 17:10 | 55.86090 | 94.89677 | 26709 ft | 380 kts | 268° |
| 2026-04-24 17:11 | 55.85131 | 94.75999 | 24902 ft | 366 kts | 268° |
| 2026-04-24 17:12 | 55.83571 | 94.54114 | 21844 ft | 377 kts | 266° |